Crown Topaz — 3FAS9 — position and weather

sailwx.info

Track history (hours):
 
Tides and Currents Weather Stations Pressure Air Temp Water Temp Dewpoint Dewpoint Depression Visibility Wind Speed Wind Dir Waves Ship Positions

Crown Topaz

Last reported at 2015-Jul-19 00:14 UTC. Time now 2015-Jul-30 20:18 UTC.
Position N 17°27' W 063°09'.
Warning: this ship's position is 11 days out of date.

Length 152 m; draft 6.3 m.

Type: Cargo ship. MMSI: 357144000.

Date/timePositionNaut miles runAvg speedWind from/ knotsBaromVisibWave heightAir tempDewpointWater temp
2015-Jul-19 00:14N 17°27' W 063°09'1015.2
2015-Jul-18 23:33N 17°37' W 063°08'1514.7
2015-Jul-18 22:32N 17°52' W 063°06'9 8.8
2015-Jul-18 21:31N 18°00' W 063°03'0 0.0
2015-Jul-18 20:31N 18°00' W 063°03'0 0.0
2015-Jul-18 19:31N 18°00' W 063°03'0 0.0
2015-Jul-18 18:31N 18°00' W 063°03'0 0.0
2015-Jul-18 17:22N 18°00' W 063°03'0 0.0
2015-Jul-18 16:22N 18°00' W 063°03'0 0.0
2015-Jul-18 15:10N 18°00' W 063°03'0 0.0
2015-Jul-18 14:25N 18°00' W 063°03'0 0.0
2015-Jul-18 13:25N 18°00' W 063°03'0 0.0
2015-Jul-18 12:28N 18°00' W 063°03'1 0.8
2015-Jul-18 11:32N 17°60' W 063°03'3 2.8
2015-Jul-18 10:33N 17°58' W 063°05'9 9.6
2015-Jul-18 09:34N 17°48' W 063°05'7013.4
2015-Jul-18 04:21N 16°47' W 062°30'1113.9
2015-Jul-18 03:33N 16°39' W 062°23'1414.2
2015-Jul-18 02:34N 16°28' W 062°13'1514.5
2015-Jul-18 01:33N 16°16' W 062°04'3013.9
2015-Jul-17 23:24N 15°54' W 061°43'1314.8
2015-Jul-17 22:31N 16°01' W 061°31'1212.3
2015-Jul-17 21:33N 16°13' W 061°32'1 1.4
2015-Jul-17 20:33N 16°14' W 061°33'0 0.0
2015-Jul-17 19:34N 16°14' W 061°33'0 0.0
2015-Jul-17 18:33N 16°14' W 061°33'0 0.0
2015-Jul-17 17:34N 16°14' W 061°33'0 0.0
2015-Jul-17 16:34N 16°14' W 061°33'0 0.0
2015-Jul-17 15:31N 16°14' W 061°33'0 0.0
2015-Jul-17 14:33N 16°14' W 061°33'0 0.0
2015-Jul-17 13:33N 16°14' W 061°33'0 0.0
2015-Jul-17 12:31N 16°14' W 061°33'0 0.0
2015-Jul-17 11:33N 16°14' W 061°33'0 0.0
2015-Jul-17 10:33N 16°14' W 061°33'4 4.2
2015-Jul-17 09:33N 16°10' W 061°30'1211.5
2015-Jul-17 08:32N 16°08' W 061°18'2015.2
2015-Jul-17 07:12N 16°10' W 060°58'  
2015-Jul-12 23:18N 36°15' W 030°10'5218.8
2015-Jul-12 20:33N 36°46' W 029°18'1818.7
2015-Jul-12 19:33N 36°56' W 028°59'1918.9
2015-Jul-12 18:33N 37°08' W 028°40'1919.3
2015-Jul-12 17:33N 37°19' W 028°20'1919.3
2015-Jul-12 16:33N 37°30' W 028°01'1919.2
2015-Jul-12 15:33N 37°42' W 027°42'1919.4
2015-Jul-12 14:33N 37°53' W 027°22'1919.1
2015-Jul-12 13:33N 38°04' W 027°02'1919.3
2015-Jul-12 12:33N 38°16' W 026°42'1919.3
2015-Jul-12 11:33N 38°27' W 026°22'1919.1
2015-Jul-12 10:34N 38°38' W 026°03'1919.4
2015-Jul-12 09:33N 38°50' W 025°43'1919.5
2015-Jul-12 08:33N 39°01' W 025°22'4019.4
2015-Jul-12 06:29N 39°25' W 024°40'2219.1
2015-Jul-12 05:21N 39°37' W 024°17'  
2015-Jul-09 22:07N 49°42' W 003°48'1419.4
2015-Jul-09 21:23N 49°49' W 003°28'1620.0
2015-Jul-09 20:33N 49°56' W 003°05'2120.8
2015-Jul-09 19:34N 50°01' W 002°34'2120.8
2015-Jul-09 18:33N 50°01' W 002°02'2120.6
2015-Jul-09 17:33N 49°52' W 001°33'2020.0
2015-Jul-09 16:33N 49°46' W 001°03'1918.5
2015-Jul-09 15:33N 49°38' W 000°37'1817.7
2015-Jul-09 14:34N 49°31' W 000°13'1313.1
2015-Jul-09 13:33N 49°26' E 000°06'1111.1
2015-Jul-09 12:34N 49°27' E 000°23'5 4.5
2015-Jul-09 11:33N 49°29' E 000°29'0 0.0
2015-Jul-09 10:30N 49°29' E 000°29'0 0.0
2015-Jul-09 09:33N 49°29' E 000°29'0 0.0
2015-Jul-09 08:30N 49°29' E 000°29'0 0.0
2015-Jul-09 07:24N 49°29' E 000°29'0 0.0
2015-Jul-09 06:27N 49°29' E 000°29'0 0.0
2015-Jul-09 05:33N 49°29' E 000°29'0 0.0
2015-Jul-09 04:33N 49°29' E 000°29'0 0.0
2015-Jul-09 03:33N 49°29' E 000°29'0 0.0
2015-Jul-09 02:33N 49°29' E 000°29'0 0.0
2015-Jul-09 01:33N 49°29' E 000°29'0 0.0
2015-Jul-09 00:33N 49°29' E 000°29'  
Track history (hours):
 
Tides and Currents Weather Stations Pressure Air Temp Water Temp Dewpoint Dewpoint Depression Visibility Wind Speed Wind Dir Waves Ship Positions

Crown Topaz

Last reported at 2015-Jul-19 00:14 UTC. Time now 2015-Jul-30 20:18 UTC.
Position N 17°27' W 063°09'.
Warning: this ship's position is 11 days out of date.

Length 152 m; draft 6.3 m.

Type: Cargo ship. MMSI: 357144000.

Date/timePositionNaut miles runAvg speedWind from/ knotsBaromVisibWave heightAir tempDewpointWater temp
2015-Jul-19 00:14N 17°27' W 063°09'1015.2
2015-Jul-18 23:33N 17°37' W 063°08'1514.7
2015-Jul-18 22:32N 17°52' W 063°06'9 8.8
2015-Jul-18 21:31N 18°00' W 063°03'0 0.0
2015-Jul-18 20:31N 18°00' W 063°03'0 0.0
2015-Jul-18 19:31N 18°00' W 063°03'0 0.0
2015-Jul-18 18:31N 18°00' W 063°03'0 0.0
2015-Jul-18 17:22N 18°00' W 063°03'0 0.0
2015-Jul-18 16:22N 18°00' W 063°03'0 0.0
2015-Jul-18 15:10N 18°00' W 063°03'0 0.0
2015-Jul-18 14:25N 18°00' W 063°03'0 0.0
2015-Jul-18 13:25N 18°00' W 063°03'0 0.0
2015-Jul-18 12:28N 18°00' W 063°03'1 0.8
2015-Jul-18 11:32N 17°60' W 063°03'3 2.8
2015-Jul-18 10:33N 17°58' W 063°05'9 9.6
2015-Jul-18 09:34N 17°48' W 063°05'7013.4
2015-Jul-18 04:21N 16°47' W 062°30'1113.9
2015-Jul-18 03:33N 16°39' W 062°23'1414.2
2015-Jul-18 02:34N 16°28' W 062°13'1514.5
2015-Jul-18 01:33N 16°16' W 062°04'3013.9
2015-Jul-17 23:24N 15°54' W 061°43'1314.8
2015-Jul-17 22:31N 16°01' W 061°31'1212.3
2015-Jul-17 21:33N 16°13' W 061°32'1 1.4
2015-Jul-17 20:33N 16°14' W 061°33'0 0.0
2015-Jul-17 19:34N 16°14' W 061°33'0 0.0
2015-Jul-17 18:33N 16°14' W 061°33'0 0.0
2015-Jul-17 17:34N 16°14' W 061°33'0 0.0
2015-Jul-17 16:34N 16°14' W 061°33'0 0.0
2015-Jul-17 15:31N 16°14' W 061°33'0 0.0
2015-Jul-17 14:33N 16°14' W 061°33'0 0.0
2015-Jul-17 13:33N 16°14' W 061°33'0 0.0
2015-Jul-17 12:31N 16°14' W 061°33'0 0.0
2015-Jul-17 11:33N 16°14' W 061°33'0 0.0
2015-Jul-17 10:33N 16°14' W 061°33'4 4.2
2015-Jul-17 09:33N 16°10' W 061°30'1211.5
2015-Jul-17 08:32N 16°08' W 061°18'2015.2
2015-Jul-17 07:12N 16°10' W 060°58'  
2015-Jul-12 23:18N 36°15' W 030°10'5218.8
2015-Jul-12 20:33N 36°46' W 029°18'1818.7
2015-Jul-12 19:33N 36°56' W 028°59'1918.9
2015-Jul-12 18:33N 37°08' W 028°40'1919.3
2015-Jul-12 17:33N 37°19' W 028°20'1919.3
2015-Jul-12 16:33N 37°30' W 028°01'1919.2
2015-Jul-12 15:33N 37°42' W 027°42'1919.4
2015-Jul-12 14:33N 37°53' W 027°22'1919.1
2015-Jul-12 13:33N 38°04' W 027°02'1919.3
2015-Jul-12 12:33N 38°16' W 026°42'1919.3
2015-Jul-12 11:33N 38°27' W 026°22'1919.1
2015-Jul-12 10:34N 38°38' W 026°03'1919.4
2015-Jul-12 09:33N 38°50' W 025°43'1919.5
2015-Jul-12 08:33N 39°01' W 025°22'4019.4
2015-Jul-12 06:29N 39°25' W 024°40'2219.1
2015-Jul-12 05:21N 39°37' W 024°17'  
2015-Jul-09 22:07N 49°42' W 003°48'1419.4
2015-Jul-09 21:23N 49°49' W 003°28'1620.0
2015-Jul-09 20:33N 49°56' W 003°05'2120.8
2015-Jul-09 19:34N 50°01' W 002°34'2120.8
2015-Jul-09 18:33N 50°01' W 002°02'2120.6
2015-Jul-09 17:33N 49°52' W 001°33'2020.0
2015-Jul-09 16:33N 49°46' W 001°03'1918.5
2015-Jul-09 15:33N 49°38' W 000°37'1817.7
2015-Jul-09 14:34N 49°31' W 000°13'1313.1
2015-Jul-09 13:33N 49°26' E 000°06'1111.1
2015-Jul-09 12:34N 49°27' E 000°23'5 4.5
2015-Jul-09 11:33N 49°29' E 000°29'0 0.0
2015-Jul-09 10:30N 49°29' E 000°29'0 0.0
2015-Jul-09 09:33N 49°29' E 000°29'0 0.0
2015-Jul-09 08:30N 49°29' E 000°29'0 0.0
2015-Jul-09 07:24N 49°29' E 000°29'0 0.0
2015-Jul-09 06:27N 49°29' E 000°29'0 0.0
2015-Jul-09 05:33N 49°29' E 000°29'0 0.0
2015-Jul-09 04:33N 49°29' E 000°29'0 0.0
2015-Jul-09 03:33N 49°29' E 000°29'0 0.0
2015-Jul-09 02:33N 49°29' E 000°29'0 0.0
2015-Jul-09 01:33N 49°29' E 000°29'0 0.0
2015-Jul-09 00:33N 49°29' E 000°29'  

Dump ship's entire track history